createdAt,value
2023-08-14T00:00:51.362Z,0.00
2023-08-14T00:01:51.238Z,0.00
2023-08-14T00:02:51.250Z,0.00
2023-08-14T00:03:51.240Z,0.00
2023-08-14T00:04:51.217Z,0.00
2023-08-14T00:05:51.180Z,0.00
2023-08-14T00:06:51.168Z,0.00
2023-08-14T00:07:51.177Z,0.00
2023-08-14T00:08:51.163Z,0.00
2023-08-14T00:09:51.162Z,0.00
2023-08-14T00:10:51.120Z,0.00
2023-08-14T00:11:51.113Z,0.00
2023-08-14T00:12:51.107Z,0.00
2023-08-14T00:13:51.105Z,0.00
2023-08-14T00:14:51.087Z,0.00
2023-08-14T00:15:51.106Z,0.00
2023-08-14T00:16:51.080Z,0.00
2023-08-14T00:17:51.116Z,0.00
2023-08-14T00:18:51.080Z,0.00
2023-08-14T00:19:51.029Z,0.00
2023-08-14T00:20:51.021Z,0.00
2023-08-14T00:21:51.006Z,0.00
2023-08-14T00:22:51.009Z,0.00
2023-08-14T00:23:50.974Z,0.00
2023-08-14T00:24:51.035Z,0.00
2023-08-14T00:25:50.976Z,0.00
2023-08-14T00:26:50.959Z,0.00
2023-08-14T00:27:50.944Z,0.00
2023-08-14T00:28:50.933Z,0.00
2023-08-14T00:29:50.922Z,0.00
2023-08-14T00:30:50.923Z,0.00
2023-08-14T00:31:50.949Z,0.00
2023-08-14T00:32:50.931Z,0.00
2023-08-14T00:33:50.887Z,0.00
2023-08-14T00:34:50.868Z,0.00
2023-08-14T00:35:50.957Z,0.00
2023-08-14T00:36:50.857Z,0.00
2023-08-14T00:37:50.872Z,0.00
2023-08-14T00:38:50.822Z,0.00
2023-08-14T00:39:50.798Z,0.00
2023-08-14T00:40:50.807Z,0.00
2023-08-14T00:41:50.805Z,0.00
2023-08-14T00:42:50.802Z,0.00
2023-08-14T00:43:50.759Z,0.00
2023-08-14T00:44:50.760Z,0.00
2023-08-14T00:45:50.739Z,0.00
2023-08-14T00:46:50.777Z,0.00
2023-08-14T00:47:50.768Z,0.00
2023-08-14T00:48:50.774Z,0.00
2023-08-14T00:49:50.708Z,0.00
2023-08-14T00:50:50.681Z,0.00
2023-08-14T00:51:50.684Z,0.00
2023-08-14T00:52:50.689Z,0.00
2023-08-14T00:53:50.661Z,0.00
2023-08-14T00:54:50.684Z,0.00
2023-08-14T00:55:50.625Z,0.00
2023-08-14T00:56:50.640Z,0.00
2023-08-14T00:57:50.662Z,0.00
2023-08-14T00:58:50.625Z,0.00
2023-08-14T00:59:50.624Z,0.00
2023-08-14T01:00:50.615Z,0.00
2023-08-14T01:01:50.599Z,0.00
2023-08-14T01:02:50.627Z,0.00
2023-08-14T01:03:50.566Z,0.00
2023-08-14T01:04:50.561Z,0.00
2023-08-14T01:05:50.543Z,0.00
2023-08-14T01:06:50.520Z,0.00
2023-08-14T01:07:50.508Z,0.00
2023-08-14T01:08:50.518Z,0.00
2023-08-14T01:09:50.488Z,0.00
2023-08-14T01:10:50.482Z,0.00
2023-08-14T01:11:50.461Z,0.00
2023-08-14T01:12:50.468Z,0.00
2023-08-14T01:13:50.459Z,0.00
2023-08-14T01:14:50.448Z,0.00
2023-08-14T01:15:50.444Z,0.00
2023-08-14T01:16:50.468Z,0.00
2023-08-14T01:17:50.453Z,0.00
2023-08-14T01:18:50.401Z,0.00
2023-08-14T01:19:50.387Z,0.00
2023-08-14T01:20:50.370Z,0.00
2023-08-14T01:21:50.393Z,0.00
2023-08-14T01:22:50.408Z,0.00
2023-08-14T01:23:50.376Z,0.00
2023-08-14T01:24:50.344Z,0.00
2023-08-14T01:25:50.311Z,0.00
2023-08-14T01:26:50.302Z,0.00
2023-08-14T01:27:50.391Z,0.00
2023-08-14T01:28:50.284Z,0.00
2023-08-14T01:29:50.294Z,0.00
2023-08-14T01:30:50.270Z,0.00
2023-08-14T01:31:50.258Z,0.00
2023-08-14T01:32:50.278Z,0.00
2023-08-14T01:33:50.255Z,0.00
2023-08-14T01:34:50.242Z,0.00
2023-08-14T01:35:50.220Z,0.00
2023-08-14T01:36:50.208Z,0.00
2023-08-14T01:37:50.192Z,0.00
2023-08-14T01:38:50.201Z,0.00
2023-08-14T01:39:50.153Z,0.00
2023-08-14T01:40:50.205Z,0.00
2023-08-14T01:41:50.141Z,0.00
2023-08-14T01:42:50.129Z,0.00
2023-08-14T01:43:50.120Z,0.00
2023-08-14T01:44:50.125Z,0.00
2023-08-14T01:45:50.148Z,0.00
2023-08-14T01:46:50.090Z,0.00
2023-08-14T01:47:50.120Z,0.00
2023-08-14T01:48:50.098Z,0.00
2023-08-14T01:49:50.050Z,0.00
2023-08-14T01:50:50.033Z,0.00
2023-08-14T01:51:50.082Z,0.00
2023-08-14T01:52:50.022Z,0.00
2023-08-14T01:53:49.998Z,0.00
2023-08-14T01:54:50.011Z,0.00
2023-08-14T01:55:49.999Z,0.00
2023-08-14T01:56:49.986Z,0.00
2023-08-14T01:57:49.964Z,0.00
2023-08-14T01:58:49.946Z,0.00
2023-08-14T01:59:49.965Z,0.00
2023-08-14T02:00:49.926Z,0.00
2023-08-14T02:01:49.945Z,0.00
2023-08-14T02:02:49.984Z,0.00
2023-08-14T02:03:49.948Z,0.00
2023-08-14T02:04:52.274Z,0.00
2023-08-14T02:05:49.867Z,0.00
2023-08-14T02:06:49.855Z,0.00
2023-08-14T02:07:49.845Z,0.00
2023-08-14T02:08:49.845Z,0.00
2023-08-14T02:09:49.879Z,0.00
2023-08-14T02:10:49.855Z,0.00
2023-08-14T02:11:49.797Z,0.00
2023-08-14T02:12:49.801Z,0.00
2023-08-14T02:13:49.779Z,0.00
2023-08-14T02:14:49.782Z,0.00
2023-08-14T02:15:49.783Z,0.00
2023-08-14T02:16:49.747Z,0.00
2023-08-14T02:17:49.751Z,0.00
2023-08-14T02:18:49.718Z,0.00
2023-08-14T02:19:49.744Z,0.00
2023-08-14T02:20:49.724Z,0.00
2023-08-14T02:21:49.812Z,0.00
2023-08-14T02:22:49.680Z,0.00
2023-08-14T02:23:49.667Z,0.00
2023-08-14T02:24:49.688Z,0.00
2023-08-14T02:25:49.649Z,0.00
2023-08-14T02:26:49.645Z,0.00
2023-08-14T02:27:49.626Z,0.00
2023-08-14T02:28:49.615Z,0.00
2023-08-14T02:29:49.603Z,0.00
2023-08-14T02:30:49.612Z,0.00
2023-08-14T02:31:49.615Z,0.00
2023-08-14T02:32:49.599Z,0.00
2023-08-14T02:33:49.563Z,0.00
2023-08-14T02:34:49.544Z,0.00
2023-08-14T02:35:49.538Z,0.00
2023-08-14T02:36:49.548Z,0.00
2023-08-14T02:37:49.510Z,0.00
2023-08-14T02:38:49.553Z,0.00
2023-08-14T02:39:49.486Z,0.00
2023-08-14T02:40:49.522Z,0.00
2023-08-14T02:41:49.496Z,0.00
2023-08-14T02:42:49.457Z,0.00
2023-08-14T02:43:49.475Z,0.00
2023-08-14T02:44:49.458Z,0.00
2023-08-14T02:45:49.478Z,0.00
2023-08-14T02:46:49.415Z,0.00
2023-08-14T02:47:49.450Z,0.00
2023-08-14T02:48:49.397Z,0.00
2023-08-14T02:49:49.386Z,0.00
2023-08-14T02:50:49.366Z,0.00
2023-08-14T02:51:49.372Z,0.00
2023-08-14T02:52:49.346Z,0.00
2023-08-14T02:53:49.336Z,0.00
2023-08-14T02:54:49.329Z,0.00
2023-08-14T02:55:49.303Z,0.00
2023-08-14T02:56:50.775Z,0.00
2023-08-14T02:57:49.289Z,0.00
2023-08-14T02:58:49.276Z,0.00
2023-08-14T02:59:49.262Z,0.00
2023-08-14T03:00:49.299Z,0.00
2023-08-14T03:01:49.248Z,0.00
2023-08-14T03:02:49.360Z,0.00
2023-08-14T03:03:49.208Z,0.00
2023-08-14T03:04:49.238Z,0.00
2023-08-14T03:05:49.202Z,0.00
2023-08-14T03:06:49.176Z,0.00
2023-08-14T03:07:49.198Z,0.00
2023-08-14T03:08:49.162Z,0.00
2023-08-14T03:09:49.156Z,0.00
2023-08-14T03:10:49.143Z,0.00
2023-08-14T03:11:49.136Z,0.00
2023-08-14T03:12:49.143Z,0.00
2023-08-14T03:13:49.117Z,0.00
2023-08-14T03:14:49.110Z,0.00
2023-08-14T03:15:49.085Z,0.00
2023-08-14T03:16:49.107Z,0.00
2023-08-14T03:17:49.084Z,0.00
2023-08-14T03:18:49.068Z,0.00
2023-08-14T03:19:49.118Z,0.00
2023-08-14T03:20:49.048Z,0.00
2023-08-14T03:21:49.065Z,0.00
2023-08-14T03:22:49.036Z,0.00
2023-08-14T03:23:49.001Z,0.00
2023-08-14T03:24:48.993Z,0.00
2023-08-14T03:25:49.025Z,0.00
2023-08-14T03:26:48.967Z,0.00
2023-08-14T03:27:48.963Z,0.00
2023-08-14T03:28:48.951Z,0.00
2023-08-14T03:29:48.949Z,0.00
2023-08-14T03:30:48.967Z,0.00
2023-08-14T03:31:48.898Z,0.00
2023-08-14T03:32:48.962Z,0.00
2023-08-14T03:33:48.896Z,0.00
2023-08-14T03:34:48.893Z,0.00
2023-08-14T03:35:48.866Z,0.00
2023-08-14T03:36:48.884Z,0.00
2023-08-14T03:37:48.844Z,0.00
2023-08-14T03:38:48.793Z,0.00
2023-08-14T03:39:48.825Z,0.00
2023-08-14T03:40:48.832Z,0.00
2023-08-14T03:41:48.806Z,0.00
2023-08-14T03:42:48.805Z,0.00
2023-08-14T03:43:48.797Z,0.00
2023-08-14T03:44:51.452Z,0.00
2023-08-14T03:45:48.763Z,0.00
2023-08-14T03:46:48.823Z,0.00
2023-08-14T03:47:48.702Z,0.00
2023-08-14T03:48:48.771Z,0.00
2023-08-14T03:49:48.671Z,0.00
2023-08-14T03:50:48.657Z,0.00
2023-08-14T03:51:48.650Z,0.00
2023-08-14T03:52:48.634Z,0.00
2023-08-14T03:53:48.622Z,0.00
2023-08-14T03:54:48.608Z,0.00
2023-08-14T03:55:48.589Z,0.00
2023-08-14T03:56:48.610Z,0.00
2023-08-14T03:57:48.645Z,0.00
2023-08-14T03:58:48.599Z,0.00
2023-08-14T03:59:50.614Z,0.00
2023-08-14T04:00:48.566Z,0.00
2023-08-14T04:01:48.537Z,0.00
2023-08-14T04:02:48.583Z,0.00
2023-08-14T04:03:48.556Z,0.00
2023-08-14T04:04:48.527Z,0.00
2023-08-14T04:05:48.497Z,0.00
2023-08-14T04:06:48.571Z,0.00
2023-08-14T04:07:48.472Z,0.00
2023-08-14T04:08:48.467Z,0.00
2023-08-14T04:09:48.439Z,0.00
2023-08-14T04:10:48.430Z,0.00
2023-08-14T04:11:48.416Z,0.00
2023-08-14T04:12:48.455Z,0.00
2023-08-14T04:13:48.402Z,0.00
2023-08-14T04:14:48.383Z,0.00
2023-08-14T04:15:48.368Z,0.00
2023-08-14T04:16:48.500Z,0.00
2023-08-14T04:17:48.370Z,0.00
2023-08-14T04:18:48.366Z,0.00
2023-08-14T04:19:48.338Z,0.00
2023-08-14T04:20:48.328Z,0.00
2023-08-14T04:21:48.317Z,0.00
2023-08-14T04:22:48.312Z,0.00
2023-08-14T04:23:48.311Z,0.00
2023-08-14T04:24:48.318Z,0.00
2023-08-14T04:25:48.265Z,0.00
2023-08-14T04:26:48.269Z,0.00
2023-08-14T04:27:48.271Z,0.00
2023-08-14T04:28:48.250Z,0.00
2023-08-14T04:29:48.237Z,0.00
2023-08-14T04:30:48.223Z,5.62
2023-08-14T04:31:48.227Z,5.62
2023-08-14T04:32:48.227Z,5.62
2023-08-14T04:33:48.188Z,5.62
2023-08-14T04:34:48.168Z,5.62
2023-08-14T04:35:48.158Z,5.62
2023-08-14T04:36:48.138Z,5.62
2023-08-14T04:37:48.153Z,5.62
2023-08-14T04:38:48.142Z,5.62
2023-08-14T04:39:48.123Z,5.62
2023-08-14T04:40:48.133Z,5.62
2023-08-14T04:41:48.090Z,5.62
2023-08-14T04:42:48.080Z,5.62
2023-08-14T04:43:48.109Z,5.62
2023-08-14T04:44:48.047Z,5.62
2023-08-14T04:45:48.078Z,5.62
2023-08-14T04:46:59.164Z,5.62
2023-08-14T04:47:48.061Z,5.62
2023-08-14T04:48:48.046Z,5.62
2023-08-14T04:49:48.002Z,5.62
2023-08-14T04:50:47.988Z,5.62
2023-08-14T04:51:47.992Z,11.25
2023-08-14T04:52:47.967Z,11.25
2023-08-14T04:53:47.971Z,11.25
2023-08-14T04:54:47.970Z,11.25
2023-08-14T04:55:47.935Z,11.25
2023-08-14T04:56:47.921Z,11.25
2023-08-14T04:57:47.910Z,11.25
2023-08-14T04:58:47.908Z,11.25
2023-08-14T04:59:54.054Z,11.25
2023-08-14T05:00:47.950Z,11.25
2023-08-14T05:01:47.941Z,11.25
2023-08-14T05:02:48.356Z,11.25
2023-08-14T05:03:47.853Z,11.25
2023-08-14T05:04:47.938Z,11.25
2023-08-14T05:05:48.217Z,11.25
2023-08-14T05:06:47.820Z,16.88
2023-08-14T05:07:47.797Z,16.88
2023-08-14T05:08:47.787Z,16.88
2023-08-14T05:09:47.805Z,16.88
2023-08-14T05:10:47.785Z,16.88
2023-08-14T05:11:47.766Z,16.88
2023-08-14T05:12:47.778Z,16.88
2023-08-14T05:13:47.740Z,16.88
2023-08-14T05:14:48.285Z,16.88
2023-08-14T05:15:53.316Z,16.88
2023-08-14T05:16:47.877Z,16.88
2023-08-14T05:17:47.759Z,16.88
2023-08-14T05:18:47.698Z,16.88
2023-08-14T05:19:47.671Z,16.88
2023-08-14T05:20:47.677Z,16.88
2023-08-14T05:21:47.662Z,16.88
2023-08-14T05:22:47.632Z,16.88
2023-08-14T05:23:47.674Z,22.50
2023-08-14T05:24:47.617Z,22.50
2023-08-14T05:25:47.596Z,22.50
2023-08-14T05:26:47.923Z,22.50
2023-08-14T05:27:50.557Z,22.50
2023-08-14T05:28:47.599Z,22.50
2023-08-14T05:29:47.593Z,22.50
2023-08-14T05:30:47.549Z,28.12
2023-08-14T05:31:47.671Z,28.12
2023-08-14T05:32:47.601Z,28.12
2023-08-14T05:33:47.519Z,28.12
2023-08-14T05:34:47.494Z,28.12
2023-08-14T05:35:47.515Z,28.12
2023-08-14T05:36:47.487Z,28.12
2023-08-14T05:37:47.470Z,28.12
2023-08-14T05:38:47.468Z,33.75
2023-08-14T05:39:47.454Z,33.75
2023-08-14T05:40:47.431Z,33.75
2023-08-14T05:41:47.555Z,33.75
2023-08-14T05:42:47.415Z,33.75
2023-08-14T05:43:47.422Z,33.75
2023-08-14T05:44:47.402Z,33.75
2023-08-14T05:45:47.451Z,33.75
2023-08-14T05:46:49.502Z,33.75
2023-08-14T05:47:47.397Z,33.75
2023-08-14T05:48:47.362Z,33.75
2023-08-14T05:49:47.343Z,39.38
2023-08-14T05:50:47.359Z,33.75
2023-08-14T05:51:47.370Z,33.75
2023-08-14T05:52:47.310Z,33.75
2023-08-14T05:53:48.077Z,39.38
2023-08-14T05:54:47.290Z,45.00
2023-08-14T05:55:47.285Z,45.00
2023-08-14T05:56:47.265Z,45.00
2023-08-14T05:57:47.308Z,45.00
2023-08-14T05:58:47.242Z,45.00
2023-08-14T05:59:47.246Z,45.00
2023-08-14T06:00:47.271Z,45.00
2023-08-14T06:01:47.230Z,45.00
2023-08-14T06:02:47.244Z,45.00
2023-08-14T06:03:47.354Z,45.00
2023-08-14T06:04:47.186Z,45.00
2023-08-14T06:05:47.191Z,39.38
2023-08-14T06:06:47.167Z,39.38
2023-08-14T06:08:47.238Z,45.00
2023-08-14T06:09:47.128Z,45.00
2023-08-14T06:10:47.113Z,45.00
2023-08-14T06:11:47.130Z,45.00
2023-08-14T06:12:47.087Z,45.00
2023-08-14T06:13:47.221Z,39.38
2023-08-14T06:14:47.090Z,45.00
2023-08-14T06:15:47.063Z,45.00
2023-08-14T06:16:47.134Z,45.00
2023-08-14T06:17:47.066Z,45.00
2023-08-14T06:18:47.051Z,45.00
2023-08-14T06:19:47.013Z,45.00
2023-08-14T06:20:46.998Z,39.38
2023-08-14T06:21:47.061Z,45.00
2023-08-14T06:22:46.992Z,45.00
2023-08-14T06:23:46.989Z,45.00
2023-08-14T06:24:46.960Z,45.00
2023-08-14T06:25:46.961Z,45.00
2023-08-14T06:26:46.953Z,45.00
2023-08-14T06:27:46.965Z,45.00
2023-08-14T06:28:46.912Z,45.00
2023-08-14T06:29:46.922Z,45.00
2023-08-14T06:30:46.921Z,45.00
2023-08-14T06:31:46.895Z,45.00
2023-08-14T06:32:46.917Z,50.62
2023-08-14T06:33:46.899Z,45.00
2023-08-14T06:34:46.852Z,45.00
2023-08-14T06:35:46.847Z,50.62
2023-08-14T06:36:46.837Z,50.62
2023-08-14T06:37:46.831Z,50.62
2023-08-14T06:38:46.834Z,45.00
2023-08-14T06:39:46.802Z,45.00
2023-08-14T06:40:46.805Z,45.00
2023-08-14T06:41:46.819Z,45.00
2023-08-14T06:42:46.774Z,45.00
2023-08-14T06:43:46.800Z,45.00
2023-08-14T06:44:46.755Z,45.00
2023-08-14T06:45:46.759Z,45.00
2023-08-14T06:46:46.788Z,45.00
2023-08-14T06:47:46.756Z,45.00
2023-08-14T06:48:46.724Z,50.62
2023-08-14T06:49:46.723Z,45.00
2023-08-14T06:50:46.683Z,50.62
2023-08-14T06:51:46.691Z,45.00
2023-08-14T06:52:46.684Z,45.00
2023-08-14T06:53:46.694Z,45.00
2023-08-14T06:54:46.649Z,50.62
2023-08-14T06:55:46.641Z,50.62
2023-08-14T06:56:46.654Z,50.62
2023-08-14T06:57:46.655Z,50.62
2023-08-14T06:58:46.768Z,50.62
2023-08-14T06:59:46.869Z,50.62
2023-08-14T07:00:46.613Z,50.62
2023-08-14T07:01:47.227Z,50.62
2023-08-14T07:02:46.787Z,50.62
2023-08-14T07:03:46.652Z,50.62
2023-08-14T07:04:46.547Z,50.62
2023-08-14T07:05:46.868Z,50.62
2023-08-14T07:06:46.908Z,45.00
2023-08-14T07:07:46.520Z,45.00
2023-08-14T07:08:46.511Z,45.00
2023-08-14T07:09:46.542Z,39.38
2023-08-14T07:10:47.917Z,39.38
2023-08-14T07:11:46.505Z,39.38
2023-08-14T07:12:46.463Z,39.38
2023-08-14T07:13:46.458Z,39.38
2023-08-14T07:14:46.442Z,39.38
2023-08-14T07:15:46.417Z,39.38
2023-08-14T07:16:46.456Z,39.38
2023-08-14T07:17:46.431Z,39.38
2023-08-14T07:18:46.386Z,39.38
2023-08-14T07:19:46.367Z,39.38
2023-08-14T07:20:46.352Z,39.38
2023-08-14T07:21:46.371Z,39.38
2023-08-14T07:22:46.346Z,39.38
2023-08-14T07:23:46.324Z,39.38
2023-08-14T07:24:46.329Z,39.38
2023-08-14T07:25:46.316Z,39.38
2023-08-14T07:26:46.343Z,39.38
2023-08-14T07:27:46.288Z,39.38
2023-08-14T07:28:46.271Z,39.38
2023-08-14T07:29:46.277Z,39.38
2023-08-14T07:30:46.439Z,39.38
2023-08-14T07:31:46.254Z,39.38
2023-08-14T07:32:46.281Z,39.38
2023-08-14T07:33:46.225Z,39.38
2023-08-14T07:34:46.209Z,33.75
2023-08-14T07:35:46.215Z,33.75
2023-08-14T07:36:46.189Z,33.75
2023-08-14T07:37:46.196Z,33.75
2023-08-14T07:38:46.182Z,33.75
2023-08-14T07:39:46.149Z,33.75
2023-08-14T07:40:46.147Z,33.75
2023-08-14T07:41:46.156Z,33.75
2023-08-14T07:42:46.140Z,33.75
2023-08-14T07:43:46.142Z,33.75
2023-08-14T07:44:46.116Z,33.75
2023-08-14T07:45:46.125Z,33.75
2023-08-14T07:46:46.070Z,33.75
2023-08-14T07:47:46.086Z,39.38
2023-08-14T07:48:46.046Z,39.38
2023-08-14T07:49:46.059Z,39.38
2023-08-14T07:50:46.046Z,45.00
2023-08-14T07:51:46.018Z,45.00
2023-08-14T07:52:46.034Z,45.00
2023-08-14T07:53:46.004Z,45.00
2023-08-14T07:54:45.986Z,45.00
2023-08-14T07:55:45.992Z,50.62
2023-08-14T07:56:47.502Z,50.62
2023-08-14T07:57:46.652Z,50.62
2023-08-14T07:58:45.944Z,45.00
2023-08-14T07:59:45.928Z,45.00
2023-08-14T08:00:45.925Z,45.00
2023-08-14T08:01:46.063Z,45.00
2023-08-14T08:02:45.912Z,45.00
2023-08-14T08:03:45.913Z,45.00
2023-08-14T08:04:45.891Z,45.00
2023-08-14T08:05:45.908Z,45.00
2023-08-14T08:06:45.849Z,45.00
2023-08-14T08:07:45.861Z,45.00
2023-08-14T08:08:47.641Z,56.25
2023-08-14T08:09:45.834Z,56.25
2023-08-14T08:10:45.810Z,61.88
2023-08-14T08:11:45.804Z,67.50
2023-08-14T08:12:45.827Z,73.12
2023-08-14T08:13:45.796Z,73.12
2023-08-14T08:14:46.742Z,61.88
2023-08-14T08:15:45.809Z,56.25
2023-08-14T08:16:45.944Z,50.62
2023-08-14T08:17:45.811Z,45.00
2023-08-14T08:18:45.750Z,50.62
2023-08-14T08:19:45.733Z,50.62
2023-08-14T08:20:45.702Z,45.00
2023-08-14T08:21:45.710Z,45.00
2023-08-14T08:22:45.786Z,45.00
2023-08-14T08:23:45.667Z,50.62
2023-08-14T08:24:45.692Z,50.62
2023-08-14T08:25:45.649Z,45.00
2023-08-14T08:26:45.636Z,45.00
2023-08-14T08:27:45.644Z,45.00
2023-08-14T08:28:45.611Z,45.00
2023-08-14T08:29:45.608Z,50.62
2023-08-14T08:30:45.608Z,50.62
2023-08-14T08:31:45.648Z,61.88
2023-08-14T08:32:45.610Z,78.75
2023-08-14T08:33:45.568Z,73.12
2023-08-14T08:34:45.568Z,78.75
2023-08-14T08:35:45.548Z,73.12
2023-08-14T08:36:45.527Z,73.12
2023-08-14T08:37:45.545Z,73.12
2023-08-14T08:38:45.508Z,73.12
2023-08-14T08:39:45.517Z,73.12
2023-08-14T08:40:45.490Z,73.12
2023-08-14T08:41:45.483Z,73.12
2023-08-14T08:42:45.476Z,73.12
2023-08-14T08:43:45.489Z,73.12
2023-08-14T08:44:45.458Z,73.12
2023-08-14T08:45:45.513Z,73.12
2023-08-14T08:46:45.436Z,73.12
2023-08-14T08:47:45.444Z,73.12
2023-08-14T08:48:45.453Z,73.12
2023-08-14T08:49:45.398Z,73.12
2023-08-14T08:50:45.689Z,73.12
2023-08-14T08:51:48.868Z,73.12
2023-08-14T08:52:45.372Z,73.12
2023-08-14T08:53:47.009Z,73.12
2023-08-14T08:54:45.342Z,73.12
2023-08-14T08:56:45.323Z,73.12
2023-08-14T08:57:45.307Z,73.12
2023-08-14T08:58:45.337Z,73.12
2023-08-14T08:59:45.302Z,73.12
2023-08-14T09:00:45.272Z,73.12
2023-08-14T09:01:45.322Z,73.12
2023-08-14T09:02:47.346Z,73.12
2023-08-14T09:03:45.353Z,73.12
2023-08-14T09:04:45.610Z,73.12
2023-08-14T09:05:45.242Z,73.12
2023-08-14T09:06:45.243Z,73.12
2023-08-14T09:07:47.195Z,73.12
2023-08-14T09:08:45.220Z,73.12
2023-08-14T09:09:45.209Z,73.12
2023-08-14T09:10:45.202Z,73.12
2023-08-14T09:11:45.183Z,73.12
2023-08-14T09:12:45.158Z,73.12
2023-08-14T09:13:45.126Z,73.12
2023-08-14T09:14:45.163Z,73.12
2023-08-14T09:15:45.159Z,73.12
2023-08-14T09:16:45.110Z,73.12
2023-08-14T09:17:45.136Z,73.12
2023-08-14T09:18:45.080Z,73.12
2023-08-14T09:19:45.083Z,73.12
2023-08-14T09:20:45.060Z,73.12
2023-08-14T09:21:46.358Z,73.12
2023-08-14T09:22:45.074Z,73.12
2023-08-14T09:23:45.033Z,73.12
2023-08-14T09:24:45.028Z,73.12
2023-08-14T09:25:45.045Z,73.12
2023-08-14T09:26:45.012Z,73.12
2023-08-14T09:27:44.986Z,73.12
2023-08-14T09:28:44.984Z,73.12
2023-08-14T09:29:44.997Z,73.12
2023-08-14T09:30:44.974Z,73.12
2023-08-14T09:31:44.946Z,73.12
2023-08-14T09:32:45.068Z,73.12
2023-08-14T09:33:44.922Z,73.12
2023-08-14T09:34:44.942Z,73.12
2023-08-14T09:35:44.919Z,73.12
2023-08-14T09:36:44.910Z,73.12
2023-08-14T09:37:44.952Z,73.12
2023-08-14T09:38:44.876Z,73.12
2023-08-14T09:39:44.892Z,73.12
2023-08-14T09:40:44.835Z,73.12
2023-08-14T09:41:44.841Z,73.12
2023-08-14T09:42:44.848Z,73.12
2023-08-14T09:43:44.820Z,73.12
2023-08-14T09:44:44.881Z,73.12
2023-08-14T09:45:44.795Z,73.12
2023-08-14T09:46:44.859Z,73.12
2023-08-14T09:47:46.335Z,73.12
2023-08-14T09:48:44.834Z,73.12
2023-08-14T09:49:44.742Z,73.12
2023-08-14T09:50:44.865Z,73.12
2023-08-14T09:51:44.757Z,73.12
2023-08-14T09:52:46.656Z,73.12
2023-08-14T09:53:44.719Z,73.12
2023-08-14T09:54:44.710Z,73.12
2023-08-14T09:55:44.713Z,73.12
2023-08-14T09:56:44.719Z,73.12
2023-08-14T09:57:44.703Z,73.12
2023-08-14T09:58:44.714Z,73.12
2023-08-14T09:59:44.685Z,78.75
2023-08-14T10:00:44.679Z,78.75
2023-08-14T10:01:44.664Z,78.75
2023-08-14T10:02:44.729Z,78.75
2023-08-14T10:03:44.622Z,78.75
2023-08-14T10:04:44.611Z,78.75
2023-08-14T10:05:44.593Z,78.75
2023-08-14T10:06:44.614Z,78.75
2023-08-14T10:07:44.600Z,78.75
2023-08-14T10:08:44.590Z,78.75
2023-08-14T10:09:44.556Z,78.75
2023-08-14T10:10:47.927Z,78.75
2023-08-14T10:11:44.525Z,78.75
2023-08-14T10:12:44.532Z,78.75
2023-08-14T10:13:44.522Z,78.75
2023-08-14T10:14:44.495Z,78.75
2023-08-14T10:15:44.588Z,78.75
2023-08-14T10:16:44.525Z,78.75
2023-08-14T10:17:44.519Z,78.75
2023-08-14T10:18:44.447Z,78.75
2023-08-14T10:19:45.122Z,78.75
2023-08-14T10:20:45.122Z,78.75
2023-08-14T10:21:44.450Z,78.75
2023-08-14T10:22:44.489Z,78.75
2023-08-14T10:23:44.408Z,78.75
2023-08-14T10:24:44.389Z,78.75
2023-08-14T10:25:44.392Z,78.75
2023-08-14T10:26:44.399Z,78.75
2023-08-14T10:27:44.350Z,78.75
2023-08-14T10:28:44.387Z,78.75
2023-08-14T10:29:44.465Z,78.75
2023-08-14T10:30:44.459Z,84.38
2023-08-14T10:31:44.359Z,84.38
2023-08-14T10:32:44.315Z,84.38
2023-08-14T10:33:44.303Z,84.38
2023-08-14T10:34:44.275Z,78.75
2023-08-14T10:35:44.274Z,78.75
2023-08-14T10:36:44.250Z,78.75
2023-08-14T10:37:46.133Z,78.75
2023-08-14T10:38:44.253Z,78.75
2023-08-14T10:39:44.222Z,78.75
2023-08-14T10:40:44.200Z,78.75
2023-08-14T10:41:44.206Z,78.75
2023-08-14T10:42:44.180Z,84.38
2023-08-14T10:43:44.167Z,84.38
2023-08-14T10:44:44.167Z,84.38
2023-08-14T10:45:44.131Z,84.38
2023-08-14T10:46:44.227Z,84.38
2023-08-14T10:47:44.147Z,84.38
2023-08-14T10:48:44.151Z,84.38
2023-08-14T10:49:44.102Z,84.38
2023-08-14T10:50:44.111Z,84.38
2023-08-14T10:51:44.125Z,84.38
2023-08-14T10:52:44.068Z,84.38
2023-08-14T10:53:44.065Z,84.38
2023-08-14T10:54:44.052Z,84.38
2023-08-14T10:55:44.034Z,84.38
2023-08-14T10:56:44.027Z,84.38
2023-08-14T10:57:44.035Z,84.38
2023-08-14T10:58:44.017Z,84.38
2023-08-14T10:59:44.055Z,90.00
2023-08-14T11:00:43.991Z,61.88
2023-08-14T11:01:44.040Z,61.88
2023-08-14T11:02:44.013Z,73.12
2023-08-14T11:03:43.995Z,90.00
2023-08-14T11:04:43.947Z,90.00
2023-08-14T11:05:43.991Z,90.00
2023-08-14T11:06:43.934Z,90.00
2023-08-14T11:07:50.665Z,90.00
2023-08-14T11:08:43.907Z,90.00
2023-08-14T11:09:43.931Z,84.38
2023-08-14T11:10:43.904Z,84.38
2023-08-14T11:11:43.873Z,84.38
2023-08-14T11:12:43.930Z,90.00
2023-08-14T11:13:44.088Z,84.38
2023-08-14T11:14:43.865Z,84.38
2023-08-14T11:15:43.938Z,84.38
2023-08-14T11:16:43.904Z,84.38
2023-08-14T11:17:43.904Z,84.38
2023-08-14T11:18:43.841Z,84.38
2023-08-14T11:19:43.800Z,84.38
2023-08-14T11:20:43.922Z,84.38
2023-08-14T11:21:43.783Z,84.38
2023-08-14T11:22:43.769Z,90.00
2023-08-14T11:23:43.781Z,90.00
2023-08-14T11:24:43.807Z,90.00
2023-08-14T11:25:43.753Z,90.00
2023-08-14T11:26:44.232Z,90.00
2023-08-14T11:27:44.545Z,90.00
2023-08-14T11:29:51.803Z,90.00
2023-08-14T11:30:43.714Z,90.00
2023-08-14T11:31:49.356Z,84.38
2023-08-14T11:32:43.700Z,95.62
2023-08-14T11:33:43.765Z,95.62
2023-08-14T11:34:43.668Z,95.62
2023-08-14T11:35:45.018Z,95.62
2023-08-14T11:36:43.681Z,101.25
2023-08-14T11:37:43.639Z,101.25
2023-08-14T11:38:44.856Z,101.25
2023-08-14T11:39:43.640Z,101.25
2023-08-14T11:40:43.625Z,101.25
2023-08-14T11:41:43.601Z,101.25
2023-08-14T11:42:43.846Z,101.25
2023-08-14T11:43:46.718Z,101.25
2023-08-14T11:44:43.554Z,95.62
2023-08-14T11:45:43.577Z,106.88
2023-08-14T11:46:43.556Z,106.88
2023-08-14T11:47:43.626Z,106.88
2023-08-14T11:48:43.637Z,106.88
2023-08-14T11:49:43.570Z,112.50
2023-08-14T11:50:43.499Z,112.50
2023-08-14T11:51:43.475Z,112.50
2023-08-14T11:52:43.492Z,118.12
2023-08-14T11:53:43.469Z,118.12
2023-08-14T11:54:43.487Z,118.12
2023-08-14T11:55:43.431Z,123.75
2023-08-14T11:56:43.427Z,123.75
2023-08-14T11:57:43.437Z,129.38
2023-08-14T11:58:47.934Z,129.38
2023-08-14T11:59:43.408Z,135.00
2023-08-14T12:00:43.399Z,135.00
2023-08-14T12:01:43.395Z,135.00
2023-08-14T12:02:43.406Z,135.00
2023-08-14T12:03:43.520Z,140.62
2023-08-14T12:04:43.371Z,151.88
2023-08-14T12:05:44.158Z,168.75
2023-08-14T12:06:43.310Z,180.00
2023-08-14T12:07:43.293Z,241.88
2023-08-14T12:08:43.323Z,281.25
2023-08-14T12:09:43.306Z,298.12
2023-08-14T12:10:43.311Z,466.88
2023-08-14T12:11:43.275Z,483.75
2023-08-14T12:12:54.475Z,393.75
2023-08-14T12:13:43.273Z,326.25
2023-08-14T12:14:43.281Z,455.62
2023-08-14T12:15:43.322Z,534.38
2023-08-14T12:16:43.349Z,596.25
2023-08-14T12:17:43.412Z,562.50
2023-08-14T12:18:43.257Z,540.00
2023-08-14T12:19:43.196Z,489.38
2023-08-14T12:20:43.287Z,517.50
2023-08-14T12:21:43.207Z,540.00
2023-08-14T12:22:47.130Z,483.75
2023-08-14T12:23:43.153Z,455.62
2023-08-14T12:24:43.133Z,461.25
2023-08-14T12:25:43.147Z,517.50
2023-08-14T12:26:43.125Z,517.50
2023-08-14T12:27:43.090Z,455.62
2023-08-14T12:28:43.146Z,500.62
2023-08-14T12:29:43.141Z,506.25
2023-08-14T12:30:43.061Z,528.75
2023-08-14T12:31:43.121Z,551.25
2023-08-14T12:32:43.098Z,483.75
2023-08-14T12:33:45.108Z,427.50
2023-08-14T12:34:43.276Z,444.38
2023-08-14T12:35:43.083Z,540.00
2023-08-14T12:36:43.168Z,540.00
2023-08-14T12:37:43.069Z,551.25
2023-08-14T12:38:42.990Z,517.50
2023-08-14T12:39:43.091Z,540.00
2023-08-14T12:40:43.052Z,556.88
2023-08-14T12:41:43.143Z,466.88
2023-08-14T12:42:42.970Z,517.50
2023-08-14T12:43:42.977Z,590.62
2023-08-14T12:44:42.959Z,562.50
2023-08-14T12:45:42.945Z,534.38
2023-08-14T12:46:42.939Z,523.12
2023-08-14T12:47:42.978Z,585.00
2023-08-14T12:48:42.890Z,618.75
2023-08-14T12:49:42.939Z,596.25
2023-08-14T12:50:42.876Z,585.00
2023-08-14T12:51:42.879Z,613.12
2023-08-14T12:52:42.944Z,618.75
2023-08-14T12:53:42.845Z,601.88
2023-08-14T12:54:42.896Z,601.88
2023-08-14T12:55:42.811Z,601.88
2023-08-14T12:56:44.209Z,607.50
2023-08-14T12:57:42.813Z,607.50
2023-08-14T12:58:48.224Z,663.75
2023-08-14T12:59:42.800Z,714.38
2023-08-14T13:00:42.812Z,630.00
2023-08-14T13:01:47.745Z,568.12
2023-08-14T13:02:42.955Z,675.00